Terminal Aerodrome Forecast
Issued by NWS

Current Version | Previous Version | Text Only | Print | Product List | Glossary On
Versions: 1 2 3 4 5 6 7 8 9 10 11 12 13 14 15 16 17 18 19 20 21 22 23 24 25 26 27
000
FTUS44 KTSA 191100
TAFMLC
TAF
KMLC 191120Z 1912/2012 04004KT 6SM BR VCSH OVC009
      TEMPO 1912/1915 SCT011 OVC017
     FM191900 VRB04KT P6SM OVC015=

USA.gov is the U.S. government's official web portal to all federal, state and local government web resources and services.